RJAW

Details ICAO RJAW (IWO)
Name IWO JIMA
Region Japan
Timezone Asia/Tokyo (UTC+9.0)
Plans Departing 39
Arriving 27
Stats Elevation 384 ft / 117 m (AMSL)
Location 24.783986° 141.322722°
Runways 1
Magnetic Variation 3.567° W
Sunrise 2017-12-18 21:15:00 UTC / 2017-12-19 06:15:00 Local
Sunset 2017-12-19 07:50:55 UTC / 2017-12-19 16:50:55 Local
Advertisement - Login to hide

Runways

ID Width Length Bearing (true) Bearing (mag) Surface Threshold Offset Overrun Length
07 200 ft / 61 m 8,676 ft / 2,645 m 67.97° 71.54° Asphalt 0 ft / 0 m 550 ft / 168 m
25 200 ft / 61 m 8,676 ft / 2,645 m 247.98° 251.55° Asphalt 0 ft / 0 m 550 ft / 168 m

Map

Weather


0- 5 10 15 20 25 30 35+ Temperature / ° C

Clouds and Precipitation
Forecast for 2017-12-19 00:00 UTC. Updated 2 hours ago

Ground ~20,000 ft ~40,000 ft Winds

METAR

RJAW 182100Z 04015KT 8000 -SHRA FEW004 SCT006 OVC010 19/19 Q1019 RMK 1ST004 3ST006 8CU010 A3010

TAF

Not found

Frequencies

Tower 133.40 MHz TWR
Tower 126.20 MHz TWR
Warning: Do not use this data for real-world aviation or navigation. No guarantee of current accuracy is given.